Time;durP1;ratioP1;P1;durP2;ratioP2;P2;SDS_P1;SDS_P2;PMS_P1;PMS_P2;Temp;Humidity;BMP_temperature;BMP_pressure;BME280_temperature;BME280_humidity;BME280_pressure;Samples;Min_cycle;Max_cycle;Signal;HPM_P1;HPM_P2
2022/09/23 00:09:07;;;;;;;3.85;2.55;;;11.40;99.90;;;;;;20962137;28;20117;-37
2022/09/23 00:19:08;;;;;;;4.53;2.35;;;11.30;99.90;;;;;;20962154;28;20044;-38
2022/09/23 00:29:09;;;;;;;11.23;2.55;;;11.30;99.90;;;;;;20955604;28;20040;-38
2022/09/23 00:39:10;;;;;;;4.85;2.50;;;11.30;99.90;;;;;;20957861;28;20721;-38
2022/09/23 00:49:17;;;;;;;4.13;2.20;;;11.20;99.90;;;;;;20941516;28;20578;-38
2022/09/23 00:59:19;;;;;;;5.10;2.10;;;11.20;99.90;;;;;;20958916;28;20070;-38
2022/09/23 01:09:22;;;;;;;5.15;2.78;;;11.20;99.90;;;;;;20954807;28;20068;-38
2022/09/23 01:19:35;;;;;;;4.85;2.30;;;11.20;99.90;;;;;;20955392;28;20883;-38
2022/09/23 01:29:57;;;;;;;4.32;2.65;;;11.10;99.90;;;;;;20953311;28;20036;-38
2022/09/23 01:40:19;;;;;;;4.30;2.35;;;11.20;99.90;;;;;;20955136;28;20044;-38
2022/09/23 02:01:02;;;;;;;11.95;2.90;;;11.30;99.90;;;;;;20956519;28;20900;-38
2022/09/23 02:11:09;;;;;;;4.97;2.50;;;11.40;99.90;;;;;;20951751;28;20157;-38
2022/09/23 02:21:10;;;;;;;6.40;3.10;;;11.50;99.90;;;;;;20948314;28;20142;-38
2022/09/23 02:31:45;;;;;;;4.22;2.75;;;11.60;99.90;;;;;;20949941;28;20039;-38
2022/09/23 02:42:06;;;;;;;6.65;2.83;;;11.60;99.90;;;;;;20968439;28;20902;-37
2022/09/23 02:52:07;;;;;;;4.70;2.78;;;11.60;99.90;;;;;;20976211;28;20138;-38
2022/09/23 03:02:35;;;;;;;5.72;2.85;;;11.50;99.90;;;;;;20964480;28;20830;-38
2022/09/23 03:12:46;;;;;;;6.05;2.75;;;11.50;99.90;;;;;;20959680;28;20945;-38
2022/09/23 03:22:59;;;;;;;4.40;2.25;;;11.50;99.90;;;;;;20963187;28;20071;-38
2022/09/23 03:33:04;;;;;;;4.72;2.60;;;11.40;99.90;;;;;;20965875;28;20565;-38
2022/09/23 03:43:06;;;;;;;4.78;3.05;;;11.50;99.90;;;;;;20967222;28;20039;-38
2022/09/23 03:53:07;;;;;;;5.32;2.85;;;11.50;99.90;;;;;;20965206;28;20032;-38
2022/09/23 04:03:08;;;;;;;3.45;2.65;;;11.50;99.90;;;;;;20957296;28;20039;-38
2022/09/23 04:13:09;;;;;;;7.68;3.38;;;11.60;99.90;;;;;;20960868;28;20102;-38
2022/09/23 04:23:10;;;;;;;3.70;2.40;;;11.70;99.90;;;;;;20959919;28;20040;-38
2022/09/23 04:33:12;;;;;;;4.45;2.13;;;11.70;99.90;;;;;;20963070;28;20089;-37
2022/09/23 04:43:15;;;;;;;4.18;2.45;;;11.80;99.90;;;;;;20965240;28;20078;-37
2022/09/23 04:53:16;;;;;;;4.30;1.95;;;11.90;99.90;;;;;;20964783;28;20070;-37
2022/09/23 05:03:17;;;;;;;11.05;3.38;;;11.80;99.90;;;;;;20957606;28;20041;-37
2022/09/23 05:13:18;;;;;;;5.40;2.10;;;11.80;99.90;;;;;;20962303;28;20047;-37
2022/09/23 05:23:21;;;;;;;2.10;1.30;;;11.80;99.90;;;;;;20957744;28;20075;-37
2022/09/23 05:33:22;;;;;;;3.63;2.45;;;11.80;99.90;;;;;;20953013;28;20055;-37
2022/09/23 05:43:23;;;;;;;4.60;2.88;;;11.90;99.90;;;;;;20949823;28;21921;-37
2022/09/23 05:53:26;;;;;;;2.75;1.80;;;11.90;99.90;;;;;;20954652;28;20479;-37
2022/09/23 06:03:27;;;;;;;2.90;1.70;;;12.00;99.90;;;;;;20952747;28;20060;-37
2022/09/23 06:13:27;;;;;;;2.72;1.73;;;12.10;99.90;;;;;;20963287;28;20126;-38
2022/09/23 06:23:29;;;;;;;4.93;2.05;;;12.20;99.90;;;;;;20975520;28;20049;-38
2022/09/23 06:33:30;;;;;;;3.28;1.60;;;12.30;99.90;;;;;;20978313;28;20098;-37
2022/09/23 06:43:32;;;;;;;3.60;2.20;;;12.40;99.90;;;;;;20981631;28;20674;-37
2022/09/23 06:53:33;;;;;;;5.78;2.50;;;12.50;99.90;;;;;;20974335;28;20036;-37
2022/09/23 07:03:35;;;;;;;4.13;2.10;;;12.60;99.90;;;;;;20974963;28;20078;-38
2022/09/23 07:13:36;;;;;;;8.27;2.45;;;12.80;99.90;;;;;;20975582;28;20036;-40
2022/09/23 07:23:37;;;;;;;4.18;1.60;;;12.80;99.90;;;;;;20970109;28;20490;-38
2022/09/23 07:33:42;;;;;;;3.53;1.50;;;13.00;99.90;;;;;;20969117;28;20040;-37
2022/09/23 07:43:45;;;;;;;5.32;2.05;;;13.10;99.90;;;;;;20974931;28;20036;-37
2022/09/23 07:53:47;;;;;;;3.10;1.55;;;13.40;99.90;;;;;;20992381;28;20102;-37
2022/09/23 08:03:48;;;;;;;3.65;1.70;;;13.60;99.90;;;;;;20980270;28;20037;-37
2022/09/23 08:13:49;;;;;;;4.57;2.42;;;13.80;99.90;;;;;;20989819;28;20043;-37
2022/09/23 08:23:50;;;;;;;3.45;1.60;;;14.10;99.90;;;;;;20977761;28;20041;-37
2022/09/23 08:33:56;;;;;;;5.78;2.85;;;14.30;99.90;;;;;;20973952;28;20387;-37
2022/09/23 08:44:01;;;;;;;3.78;1.67;;;14.50;99.90;;;;;;20964103;28;20041;-37
2022/09/23 08:54:02;;;;;;;7.75;3.08;;;14.70;99.90;;;;;;20960047;28;20488;-37
2022/09/23 09:04:33;;;;;;;4.38;2.22;;;15.00;99.90;;;;;;20963311;28;20036;-38
2022/09/23 09:14:59;;;;;;;3.00;1.55;;;15.30;99.90;;;;;;20973705;28;21056;-37
2022/09/23 09:25:10;;;;;;;3.65;1.45;;;15.50;99.90;;;;;;20970545;28;20375;-37
2022/09/23 09:35:33;;;;;;;4.90;2.00;;;15.60;99.90;;;;;;20910304;28;20043;-38
2022/09/23 09:46:12;;;;;;;3.35;1.98;;;15.80;99.90;;;;;;20966460;28;20865;-37
2022/09/23 09:56:15;;;;;;;3.08;1.60;;;16.00;99.90;;;;;;20996137;28;20102;-37
2022/09/23 10:06:18;;;;;;;3.50;1.60;;;16.40;99.90;;;;;;21002182;28;20044;-38
2022/09/23 10:16:19;;;;;;;2.35;1.08;;;16.50;99.90;;;;;;20999519;28;20049;-38
2022/09/23 10:26:49;;;;;;;3.15;1.88;;;16.80;99.90;;;;;;20989850;28;20040;-38
2022/09/23 10:37:01;;;;;;;7.03;2.88;;;17.00;99.90;;;;;;20996046;28;20349;-38
2022/09/23 10:47:27;;;;;;;3.75;2.10;;;17.00;99.90;;;;;;20999402;28;20036;-38
2022/09/23 10:58:05;;;;;;;2.65;1.15;;;17.00;99.90;;;;;;20995782;28;21141;-37
2022/09/23 11:08:37;;;;;;;3.80;1.53;;;17.00;99.90;;;;;;20979606;28;20044;-38
2022/09/23 11:18:54;;;;;;;3.22;1.33;;;17.00;99.90;;;;;;20974607;28;20812;-38
2022/09/23 11:29:10;;;;;;;3.57;1.87;;;17.00;99.90;;;;;;20969941;28;20049;-38
2022/09/23 11:39:19;;;;;;;4.38;1.70;;;17.00;99.90;;;;;;20965571;28;20060;-37
2022/09/23 11:50:00;;;;;;;2.95;1.50;;;17.10;99.90;;;;;;20971587;28;20113;-37
2022/09/23 12:00:12;;;;;;;3.25;1.55;;;17.20;99.90;;;;;;20971695;28;20870;-38
2022/09/23 12:10:15;;;;;;;2.45;1.42;;;17.20;99.90;;;;;;20971801;28;20434;-38
2022/09/23 12:20:41;;;;;;;3.28;1.40;;;17.50;99.90;;;;;;20970472;28;20060;-38
2022/09/23 12:30:44;;;;;;;3.72;1.60;;;17.60;99.90;;;;;;20969361;28;21936;-38
2022/09/23 12:40:46;;;;;;;5.82;2.72;;;17.90;99.90;;;;;;20969190;28;20044;-36
2022/09/23 12:50:57;;;;;;;2.13;1.10;;;18.50;99.90;;;;;;20975078;28;20036;-36
2022/09/23 13:01:20;;;;;;;6.45;1.48;;;18.70;99.90;;;;;;20973364;28;20409;-36
2022/09/23 13:11:27;;;;;;;3.67;1.77;;;18.40;99.90;;;;;;20966839;28;20079;-36
2022/09/23 13:21:43;;;;;;;5.10;1.90;;;18.10;99.90;;;;;;20959726;28;20923;-36
2022/09/23 13:31:45;;;;;;;4.07;1.80;;;18.10;99.90;;;;;;20961283;28;20615;-36
2022/09/23 13:41:46;;;;;;;5.60;2.33;;;18.00;99.90;;;;;;20960574;28;20475;-37
2022/09/23 13:51:50;;;;;;;3.30;2.00;;;18.10;99.90;;;;;;20965015;28;20032;-38
2022/09/23 14:02:03;;;;;;;1.90;0.98;;;18.10;99.90;;;;;;20963455;28;20360;-38
2022/09/23 14:12:05;;;;;;;6.60;0.80;;;18.20;99.90;;;;;;20962496;28;20585;-37
2022/09/23 14:22:22;;;;;;;1.90;1.20;;;18.10;99.90;;;;;;20974096;28;20090;-37
2022/09/23 14:32:26;;;;;;;2.40;1.10;;;18.00;99.90;;;;;;20986203;28;20032;-37
2022/09/23 14:42:30;;;;;;;3.03;1.33;;;17.90;99.90;;;;;;20984023;28;20063;-38
2022/09/23 14:52:31;;;;;;;3.03;1.67;;;17.70;99.90;;;;;;20991665;28;20101;-37
2022/09/23 15:02:38;;;;;;;3.80;1.58;;;17.70;99.90;;;;;;20982968;28;20043;-37
2022/09/23 15:12:40;;;;;;;2.53;1.67;;;17.80;99.90;;;;;;20986460;28;20040;-36
2022/09/23 15:22:47;;;;;;;3.70;2.38;;;17.80;99.90;;;;;;20987843;28;20075;-36
2022/09/23 15:32:48;;;;;;;2.70;1.33;;;17.60;99.90;;;;;;20983918;28;20047;-36
2022/09/23 15:42:51;;;;;;;12.70;2.08;;;17.50;99.90;;;;;;20988688;28;20032;-36
2022/09/23 15:52:52;;;;;;;5.20;2.42;;;17.20;99.90;;;;;;20977566;28;20048;-35
2022/09/23 16:02:54;;;;;;;8.52;2.53;;;16.90;99.90;;;;;;20978894;28;20037;-37
2022/09/23 16:12:58;;;;;;;6.50;2.22;;;16.70;99.90;;;;;;20969635;28;20472;-38
2022/09/23 16:23:03;;;;;;;7.60;2.85;;;16.50;99.90;;;;;;20971478;28;20563;-38
2022/09/23 16:33:04;;;;;;;5.72;3.47;;;16.30;99.90;;;;;;20978729;28;20097;-38
2022/09/23 16:43:06;;;;;;;7.10;3.38;;;16.10;99.90;;;;;;20975779;28;20051;-38
2022/09/23 16:53:07;;;;;;;5.13;2.70;;;16.10;99.90;;;;;;20972864;28;20033;-37
2022/09/23 17:13:31;;;;;;;7.88;4.00;;;15.70;99.90;;;;;;20947066;28;21839;-38
2022/09/23 17:23:34;;;;;;;5.78;3.85;;;15.60;99.90;;;;;;20948060;28;20063;-38
2022/09/23 17:33:38;;;;;;;5.47;3.42;;;15.50;99.90;;;;;;20942273;28;20055;-38
2022/09/23 17:43:40;;;;;;;5.22;3.03;;;15.40;99.90;;;;;;20968735;28;20051;-38
2022/09/23 17:53:44;;;;;;;6.22;4.00;;;15.40;99.90;;;;;;20965297;28;20118;-38
2022/09/23 18:03:46;;;;;;;7.93;3.78;;;15.30;99.90;;;;;;20967462;28;20032;-38
2022/09/23 18:13:52;;;;;;;9.80;3.53;;;15.40;99.90;;;;;;20986294;28;20467;-38
2022/09/23 18:23:53;;;;;;;6.25;3.20;;;15.30;99.90;;;;;;20974523;28;20050;-38
2022/09/23 18:33:54;;;;;;;6.18;4.38;;;15.30;99.90;;;;;;20984516;28;20112;-38
2022/09/23 18:43:56;;;;;;;7.47;4.43;;;15.30;99.90;;;;;;20967150;28;20189;-38
2022/09/23 18:53:59;;;;;;;12.15;5.32;;;15.30;99.90;;;;;;20978651;28;20237;-38
2022/09/23 19:04:01;;;;;;;9.10;4.72;;;15.30;99.90;;;;;;20970046;28;20098;-38
2022/09/23 19:14:05;;;;;;;8.68;4.53;;;15.10;99.90;;;;;;20967169;28;20128;-38
2022/09/23 19:24:07;;;;;;;9.27;5.07;;;15.10;99.90;;;;;;20961901;28;20664;-38
2022/09/23 19:34:17;;;;;;;8.70;4.60;;;15.00;99.90;;;;;;20964318;28;20512;-38
2022/09/23 19:44:18;;;;;;;7.47;4.28;;;15.00;99.90;;;;;;20954324;28;20145;-38
2022/09/23 19:54:19;;;;;;;9.20;5.38;;;14.90;99.90;;;;;;20952797;28;20123;-38
2022/09/23 20:04:20;;;;;;;7.68;4.95;;;14.80;99.90;;;;;;20951664;28;20048;-38
2022/09/23 20:14:23;;;;;;;7.75;4.15;;;14.80;99.90;;;;;;20940523;28;20124;-38
2022/09/23 20:24:24;;;;;;;8.02;5.15;;;14.80;99.90;;;;;;20950472;28;20907;-38
2022/09/23 20:34:28;;;;;;;6.50;4.15;;;14.70;99.90;;;;;;20955665;28;21348;-38
2022/09/23 20:44:29;;;;;;;6.72;3.33;;;14.70;99.90;;;;;;20950946;28;20510;-38
2022/09/23 20:54:30;;;;;;;6.10;2.92;;;14.70;99.90;;;;;;20952994;28;20048;-38
2022/09/23 21:04:33;;;;;;;6.50;3.05;;;14.50;99.90;;;;;;20951054;28;20089;-38
2022/09/23 21:14:34;;;;;;;4.65;2.08;;;14.30;99.90;;;;;;20947508;28;20145;-38
2022/09/23 21:24:35;;;;;;;4.45;2.22;;;14.20;99.90;;;;;;20951733;28;20071;-38
2022/09/23 21:34:36;;;;;;;5.78;3.05;;;14.20;99.90;;;;;;20955340;28;20297;-38
2022/09/23 21:44:37;;;;;;;6.07;3.47;;;14.20;99.90;;;;;;20950435;28;20040;-38
2022/09/23 21:54:38;;;;;;;8.93;4.63;;;14.20;99.90;;;;;;20948956;28;20079;-38
2022/09/23 22:04:39;;;;;;;9.40;3.67;;;14.20;99.90;;;;;;20945902;28;20039;-38
2022/09/23 22:14:41;;;;;;;6.93;3.67;;;14.20;99.90;;;;;;20945877;28;20403;-38
2022/09/23 22:24:44;;;;;;;4.53;3.53;;;14.20;99.90;;;;;;20944965;28;20329;-38
2022/09/23 22:34:47;;;;;;;8.77;4.05;;;14.10;99.90;;;;;;20946070;28;20048;-38
2022/09/23 22:44:49;;;;;;;4.72;3.13;;;14.10;99.90;;;;;;20939746;28;20090;-38
2022/09/23 22:54:51;;;;;;;5.95;3.80;;;14.00;99.90;;;;;;20953283;28;20133;-38
2022/09/23 23:04:54;;;;;;;9.85;4.00;;;14.00;99.90;;;;;;20969495;28;20028;-39
2022/09/23 23:14:55;;;;;;;10.85;5.63;;;14.00;99.90;;;;;;20960772;28;20561;-39
2022/09/23 23:24:56;;;;;;;7.47;4.88;;;14.00;99.90;;;;;;20961885;28;20499;-38
2022/09/23 23:34:57;;;;;;;8.48;4.00;;;14.00;99.90;;;;;;20968741;28;20527;-39
2022/09/23 23:44:59;;;;;;;6.75;3.58;;;13.90;99.90;;;;;;20954147;28;20028;-38
2022/09/23 23:55:00;;;;;;;9.00;4.07;;;13.90;99.90;;;;;;20955101;28;20114;-38
